createdAt,value
2023-03-21T00:01:53.483Z,12.70
2023-03-21T00:04:22.276Z,12.80
2023-03-21T00:06:50.697Z,12.60
2023-03-21T00:09:19.301Z,12.70
2023-03-21T00:11:48.288Z,12.60
2023-03-21T00:14:18.860Z,12.60
2023-03-21T00:16:50.805Z,12.60
2023-03-21T00:19:21.938Z,12.60
2023-03-21T00:22:08.788Z,12.60
2023-03-21T00:24:38.857Z,12.60
2023-03-21T00:27:43.025Z,12.60
2023-03-21T00:29:56.973Z,12.70
2023-03-21T00:32:25.417Z,12.60
2023-03-21T00:35:09.693Z,12.60
2023-03-21T00:37:43.954Z,12.60
2023-03-21T00:40:25.452Z,12.50
2023-03-21T00:42:56.193Z,12.50
2023-03-21T00:45:24.767Z,12.50
2023-03-21T00:47:53.253Z,12.60
2023-03-21T00:50:23.052Z,12.50
2023-03-21T00:52:51.486Z,12.50
2023-03-21T00:55:21.657Z,12.50
2023-03-21T00:57:56.193Z,12.50
2023-03-21T01:00:29.906Z,12.50
2023-03-21T01:03:04.369Z,12.50
2023-03-21T01:05:58.213Z,12.50
2023-03-21T01:08:35.156Z,12.50
2023-03-21T01:11:14.205Z,12.50
2023-03-21T01:13:53.043Z,12.50
2023-03-21T01:16:25.440Z,12.40
2023-03-21T01:18:55.009Z,12.40
2023-03-21T01:21:24.958Z,12.50
2023-03-21T01:23:53.807Z,12.40
2023-03-21T01:26:22.408Z,12.50
2023-03-21T01:28:50.875Z,12.40
2023-03-21T01:31:19.840Z,12.50
2023-03-21T01:33:48.984Z,12.40
2023-03-21T01:36:23.408Z,12.40
2023-03-21T01:38:55.700Z,12.40
2023-03-21T01:41:43.280Z,12.40
2023-03-21T01:44:20.768Z,12.30
2023-03-21T01:47:11.163Z,12.30
2023-03-21T01:50:02.666Z,12.30
2023-03-21T01:52:54.297Z,12.50
2023-03-21T01:55:31.028Z,12.30
2023-03-21T01:58:09.927Z,12.30
2023-03-21T02:01:02.849Z,12.30
2023-03-21T02:03:51.203Z,12.30
2023-03-21T02:06:52.247Z,12.30
2023-03-21T02:09:47.093Z,12.20
2023-03-21T02:12:20.540Z,12.20
2023-03-21T02:14:51.204Z,12.20
2023-03-21T02:17:39.267Z,12.20
2023-03-21T02:20:56.210Z,12.20
2023-03-21T02:24:12.892Z,12.20
2023-03-21T02:27:07.668Z,12.10
2023-03-21T02:30:51.623Z,12.10
2023-03-21T02:34:06.542Z,12.10
2023-03-21T02:37:01.198Z,12.10
2023-03-21T02:39:37.769Z,12.10
2023-03-21T02:42:15.881Z,12.00
2023-03-21T02:44:48.469Z,12.00
2023-03-21T02:47:25.934Z,12.00
2023-03-21T02:49:58.849Z,12.00
2023-03-21T02:52:39.113Z,12.00
2023-03-21T02:55:15.592Z,12.00
2023-03-21T02:58:12.505Z,12.00
2023-03-21T03:00:47.530Z,12.00
2023-03-21T03:03:34.534Z,12.00
2023-03-21T03:06:14.727Z,12.00
2023-03-21T03:09:06.054Z,11.90
2023-03-21T03:11:37.701Z,12.10
2023-03-21T03:14:47.092Z,12.00
2023-03-21T03:17:39.430Z,11.90
2023-03-21T03:20:29.600Z,11.90
2023-03-21T03:23:10.511Z,11.90
2023-03-21T03:25:46.193Z,12.00
2023-03-21T03:28:21.415Z,11.80
2023-03-21T03:31:07.516Z,11.80
2023-03-21T03:33:46.914Z,11.90
2023-03-21T03:36:31.162Z,11.80
2023-03-21T03:39:08.977Z,11.80
2023-03-21T03:42:12.502Z,11.80
2023-03-21T03:44:39.232Z,11.80
2023-03-21T03:47:22.882Z,11.80
2023-03-21T03:50:09.838Z,11.70
2023-03-21T03:52:53.662Z,11.80
2023-03-21T03:55:28.210Z,11.90
2023-03-21T03:58:04.773Z,11.70
2023-03-21T04:00:35.398Z,11.70
2023-03-21T04:03:03.923Z,11.70
2023-03-21T04:05:32.559Z,11.70
2023-03-21T04:08:01.070Z,11.70
2023-03-21T04:10:37.143Z,11.70
2023-03-21T04:13:06.995Z,11.60
2023-03-21T04:15:46.627Z,11.60
2023-03-21T04:18:17.910Z,11.90
2023-03-21T04:20:48.566Z,11.60
2023-03-21T04:23:18.989Z,11.60
2023-03-21T04:25:56.276Z,11.60
2023-03-21T04:28:36.205Z,11.60
2023-03-21T04:31:33.924Z,11.60
2023-03-21T04:34:12.600Z,11.60
2023-03-21T04:36:46.314Z,11.60
2023-03-21T04:39:16.211Z,11.60
2023-03-21T04:41:48.406Z,11.80
2023-03-21T04:44:19.792Z,11.60
2023-03-21T04:46:48.497Z,11.60
2023-03-21T04:49:16.834Z,11.50
2023-03-21T04:51:46.239Z,11.60
2023-03-21T04:54:19.265Z,11.60
2023-03-21T04:56:47.585Z,11.80
2023-03-21T04:59:19.625Z,11.50
2023-03-21T05:01:48.070Z,11.50
2023-03-21T05:04:16.708Z,11.50
2023-03-21T05:06:45.913Z,11.50
2023-03-21T05:09:14.975Z,11.70
2023-03-21T05:11:44.278Z,11.50
2023-03-21T05:14:19.248Z,11.50
2023-03-21T05:16:53.418Z,11.40
2023-03-21T05:19:24.875Z,11.40
2023-03-21T05:21:54.100Z,11.40
2023-03-21T05:24:26.835Z,11.40
2023-03-21T05:26:56.238Z,11.50
2023-03-21T05:29:31.103Z,11.40
2023-03-21T05:32:03.394Z,11.40
2023-03-21T05:34:32.189Z,11.40
2023-03-21T05:37:01.457Z,11.40
2023-03-21T05:39:42.337Z,11.40
2023-03-21T05:42:18.508Z,11.30
2023-03-21T05:44:49.239Z,11.30
2023-03-21T05:47:20.221Z,11.30
2023-03-21T05:49:49.919Z,11.30
2023-03-21T05:52:18.954Z,11.30
2023-03-21T05:54:48.798Z,11.30
2023-03-21T05:57:19.192Z,11.30
2023-03-21T06:00:06.807Z,11.30
2023-03-21T06:02:43.678Z,11.30
2023-03-21T06:05:31.961Z,11.30
2023-03-21T06:08:00.477Z,11.30
2023-03-21T06:10:29.147Z,11.20
2023-03-21T06:12:57.538Z,11.20
2023-03-21T06:15:33.603Z,11.20
2023-03-21T06:18:16.702Z,11.20
2023-03-21T06:20:57.504Z,11.20
2023-03-21T06:23:26.062Z,11.20
2023-03-21T06:25:55.098Z,11.20
2023-03-21T06:28:28.216Z,11.20
2023-03-21T06:30:57.956Z,11.20
2023-03-21T06:33:28.355Z,11.20
2023-03-21T06:35:59.365Z,11.10
2023-03-21T06:38:28.000Z,11.20
2023-03-21T06:40:56.332Z,11.10
2023-03-21T06:43:26.977Z,11.40
2023-03-21T06:45:57.515Z,11.10
2023-03-21T06:48:26.413Z,11.10
2023-03-21T06:50:57.338Z,11.10
2023-03-21T06:53:28.433Z,11.10
2023-03-21T06:56:16.771Z,11.20
2023-03-21T06:58:47.045Z,11.10
2023-03-21T07:01:35.157Z,11.40
2023-03-21T07:04:08.008Z,11.20
2023-03-21T07:06:37.217Z,11.20
2023-03-21T07:09:06.749Z,11.20
2023-03-21T07:11:37.402Z,11.20
2023-03-21T07:14:07.586Z,11.20
2023-03-21T07:16:37.393Z,11.30
2023-03-21T07:19:06.113Z,11.30
2023-03-21T07:21:34.482Z,11.30
2023-03-21T07:24:02.921Z,11.30
2023-03-21T07:26:31.283Z,11.40
2023-03-21T07:29:00.623Z,11.40
2023-03-21T07:31:29.611Z,11.50
2023-03-21T07:33:59.483Z,11.50
2023-03-21T07:36:28.207Z,11.50
2023-03-21T07:38:56.658Z,11.50
2023-03-21T07:41:26.146Z,11.60
2023-03-21T07:43:54.611Z,11.60
2023-03-21T07:46:22.966Z,11.60
2023-03-21T07:48:51.560Z,11.80
2023-03-21T07:51:21.343Z,11.70
2023-03-21T07:53:49.699Z,11.70
2023-03-21T07:56:18.065Z,11.90
2023-03-21T07:58:46.476Z,12.00
2023-03-21T08:01:14.830Z,12.00
2023-03-21T08:03:43.478Z,11.90
2023-03-21T08:06:12.545Z,12.10
2023-03-21T08:08:42.372Z,12.30
2023-03-21T08:11:12.026Z,12.10
2023-03-21T08:13:40.989Z,12.20
2023-03-21T08:16:10.437Z,12.30
2023-03-21T08:18:38.775Z,12.30
2023-03-21T08:21:09.653Z,12.60
2023-03-21T08:23:38.100Z,12.50
2023-03-21T08:26:09.370Z,12.60
2023-03-21T08:28:39.395Z,12.70
2023-03-21T08:31:09.712Z,12.80
2023-03-21T08:33:38.504Z,12.90
2023-03-21T08:36:08.503Z,13.00
2023-03-21T08:38:37.050Z,13.10
2023-03-21T08:41:07.344Z,13.20
2023-03-21T08:43:35.739Z,13.30
2023-03-21T08:46:04.627Z,13.40
2023-03-21T08:48:33.039Z,13.50
2023-03-21T08:51:02.138Z,13.60
2023-03-21T08:53:30.514Z,13.70
2023-03-21T08:55:58.925Z,13.80
2023-03-21T08:58:28.814Z,14.00
2023-03-21T09:00:57.204Z,14.10
2023-03-21T09:03:27.436Z,14.20
2023-03-21T09:05:56.092Z,14.30
2023-03-21T09:08:24.784Z,14.30
2023-03-21T09:10:54.796Z,14.40
2023-03-21T09:13:23.566Z,14.50
2023-03-21T09:15:54.202Z,14.50
2023-03-21T09:18:42.585Z,14.60
2023-03-21T09:21:13.034Z,14.70
2023-03-21T09:23:41.945Z,14.70
2023-03-21T09:26:10.796Z,14.70
2023-03-21T09:28:39.321Z,14.80
2023-03-21T09:31:11.689Z,14.90
2023-03-21T09:33:41.470Z,14.90
2023-03-21T09:36:14.187Z,14.90
2023-03-21T09:38:43.075Z,15.00
2023-03-21T09:41:25.812Z,15.00
2023-03-21T09:44:08.230Z,15.10
2023-03-21T09:46:46.028Z,15.10
2023-03-21T09:49:22.277Z,15.10
2023-03-21T09:51:53.680Z,15.20
2023-03-21T09:54:28.048Z,15.20
2023-03-21T09:57:01.271Z,15.20
2023-03-21T09:59:38.173Z,15.30
2023-03-21T10:02:36.073Z,15.30
2023-03-21T10:05:14.290Z,15.40
2023-03-21T10:07:48.800Z,15.40
2023-03-21T10:10:21.625Z,15.40
2023-03-21T10:12:51.969Z,15.40
2023-03-21T10:15:23.849Z,15.50
2023-03-21T10:18:02.530Z,15.50
2023-03-21T10:20:33.389Z,15.50
2023-03-21T10:23:05.045Z,15.60
2023-03-21T10:25:38.364Z,15.60
2023-03-21T10:28:09.860Z,15.60
2023-03-21T10:30:42.375Z,15.60
2023-03-21T10:33:17.351Z,15.70
2023-03-21T10:35:51.521Z,15.70
2023-03-21T10:38:23.564Z,15.70
2023-03-21T10:40:52.538Z,15.70
2023-03-21T10:43:34.331Z,15.80
2023-03-21T10:46:10.189Z,15.80
2023-03-21T10:48:46.291Z,15.80
2023-03-21T10:51:20.837Z,15.80
2023-03-21T10:53:53.553Z,15.80
2023-03-21T10:56:27.736Z,15.90
2023-03-21T10:58:59.708Z,15.90
2023-03-21T11:01:35.383Z,15.90
2023-03-21T11:04:14.048Z,15.90
2023-03-21T11:06:44.785Z,16.00
2023-03-21T11:09:19.720Z,16.00
2023-03-21T11:11:54.333Z,16.00
2023-03-21T11:14:34.530Z,16.00
2023-03-21T11:17:03.055Z,16.00
2023-03-21T11:19:36.820Z,16.00
2023-03-21T11:22:08.616Z,16.10
2023-03-21T11:24:37.821Z,16.10
2023-03-21T11:27:09.218Z,16.10
2023-03-21T11:29:40.556Z,16.10
2023-03-21T11:32:14.407Z,16.10
2023-03-21T11:34:49.239Z,16.10
2023-03-21T11:37:28.354Z,16.10
2023-03-21T11:40:09.148Z,16.10
2023-03-21T11:42:44.917Z,16.10
2023-03-21T11:45:18.233Z,16.10
2023-03-21T11:47:47.907Z,16.10
2023-03-21T11:50:22.486Z,16.10
2023-03-21T11:53:21.639Z,16.10
2023-03-21T11:56:11.685Z,16.10
2023-03-21T11:58:58.456Z,16.10
2023-03-21T12:01:35.537Z,16.10
2023-03-21T12:04:18.595Z,16.10
2023-03-21T12:06:55.388Z,16.10
2023-03-21T12:09:36.860Z,16.10
2023-03-21T12:12:33.031Z,16.10
2023-03-21T12:15:17.859Z,16.10
2023-03-21T12:17:57.497Z,16.10
2023-03-21T12:20:45.727Z,16.10
2023-03-21T12:23:46.781Z,16.10
2023-03-21T12:26:24.406Z,16.10
2023-03-21T12:29:09.150Z,16.10
2023-03-21T12:31:54.392Z,16.10
2023-03-21T12:34:47.105Z,16.10
2023-03-21T12:37:26.902Z,16.10
2023-03-21T12:40:09.818Z,16.10
2023-03-21T12:43:08.952Z,16.10
2023-03-21T12:45:47.383Z,16.10
2023-03-21T12:48:26.004Z,16.20
2023-03-21T12:50:57.233Z,16.20
2023-03-21T12:53:39.938Z,16.20
2023-03-21T12:56:16.925Z,16.30
2023-03-21T12:58:54.808Z,16.30
2023-03-21T13:01:24.338Z,16.30
2023-03-21T13:04:07.343Z,16.30
2023-03-21T13:06:39.047Z,16.40
2023-03-21T13:09:16.088Z,16.40
2023-03-21T13:11:47.292Z,16.40
2023-03-21T13:14:20.032Z,16.40
2023-03-21T13:16:56.064Z,16.50
2023-03-21T13:19:31.085Z,16.50
2023-03-21T13:22:08.878Z,16.50
2023-03-21T13:24:44.843Z,16.60
2023-03-21T13:27:27.564Z,16.60
2023-03-21T13:30:02.549Z,16.60
2023-03-21T13:32:35.989Z,16.70
2023-03-21T13:35:16.141Z,16.70
2023-03-21T13:37:51.960Z,16.70
2023-03-21T13:40:27.145Z,16.70
2023-03-21T13:43:03.416Z,16.70
2023-03-21T13:45:37.602Z,16.70
2023-03-21T13:48:14.550Z,16.70
2023-03-21T13:50:54.768Z,16.70
2023-03-21T13:53:27.651Z,16.70
2023-03-21T13:56:20.332Z,16.80
2023-03-21T13:58:57.371Z,16.80
2023-03-21T14:01:36.291Z,16.80
2023-03-21T14:04:13.814Z,16.80
2023-03-21T14:06:51.239Z,16.80
2023-03-21T14:09:28.992Z,16.80
2023-03-21T14:12:03.920Z,16.80
2023-03-21T14:14:41.855Z,16.80
2023-03-21T14:17:14.654Z,16.80
2023-03-21T14:19:43.122Z,16.70
2023-03-21T14:22:13.434Z,16.70
2023-03-21T14:24:42.031Z,16.70
2023-03-21T14:27:10.639Z,16.70
2023-03-21T14:29:41.853Z,16.70
2023-03-21T14:32:23.040Z,16.70
2023-03-21T14:34:51.576Z,16.70
2023-03-21T14:37:32.736Z,16.60
2023-03-21T14:40:03.234Z,16.60
2023-03-21T14:42:35.970Z,16.60
2023-03-21T14:45:20.997Z,16.50
2023-03-21T14:48:01.026Z,16.50
2023-03-21T14:50:39.259Z,16.50
2023-03-21T14:53:09.298Z,16.50
2023-03-21T14:55:44.225Z,16.40
2023-03-21T14:58:15.313Z,16.40
2023-03-21T15:00:45.345Z,16.40
2023-03-21T15:03:16.246Z,16.30
2023-03-21T15:05:46.790Z,16.30
2023-03-21T15:08:18.667Z,16.30
2023-03-21T15:11:06.318Z,16.30
2023-03-21T15:13:38.251Z,16.20
2023-03-21T15:16:09.659Z,16.20
2023-03-21T15:18:41.588Z,16.20
2023-03-21T15:21:13.745Z,16.20
2023-03-21T15:23:44.550Z,16.10
2023-03-21T15:26:17.691Z,16.10
2023-03-21T15:28:52.558Z,16.10
2023-03-21T15:31:25.194Z,16.10
2023-03-21T15:33:55.280Z,16.10
2023-03-21T15:36:27.129Z,16.00
2023-03-21T15:38:57.287Z,16.00
2023-03-21T15:41:30.498Z,16.00
2023-03-21T15:44:07.496Z,16.00
2023-03-21T15:46:43.211Z,15.90
2023-03-21T15:49:22.833Z,15.90
2023-03-21T15:51:57.122Z,15.90
2023-03-21T15:54:28.764Z,15.90
2023-03-21T15:57:01.323Z,15.90
2023-03-21T15:59:35.580Z,15.90
2023-03-21T16:02:07.316Z,15.80
2023-03-21T16:04:57.664Z,15.80
2023-03-21T16:07:26.945Z,15.80
2023-03-21T16:10:01.851Z,15.80
2023-03-21T16:12:30.451Z,15.80
2023-03-21T16:15:05.399Z,15.80
2023-03-21T16:17:39.543Z,15.70
2023-03-21T16:20:20.216Z,15.70
2023-03-21T16:22:49.054Z,15.70
2023-03-21T16:25:18.090Z,15.70
2023-03-21T16:27:48.236Z,15.70
2023-03-21T16:30:20.780Z,15.70
2023-03-21T16:32:51.073Z,15.70
2023-03-21T16:35:22.287Z,15.70
2023-03-21T16:37:52.038Z,15.60
2023-03-21T16:40:30.544Z,15.60
2023-03-21T16:42:58.968Z,15.60
2023-03-21T16:45:28.891Z,15.60
2023-03-21T16:47:59.318Z,15.60
2023-03-21T16:50:31.095Z,15.60
2023-03-21T16:53:00.004Z,15.60
2023-03-21T16:55:29.049Z,15.50
2023-03-21T16:57:57.694Z,15.60
2023-03-21T17:00:29.138Z,15.60
2023-03-21T17:03:02.252Z,15.50
2023-03-21T17:05:32.068Z,15.50
2023-03-21T17:08:02.374Z,15.50
2023-03-21T17:10:33.105Z,15.50
2023-03-21T17:13:01.504Z,15.50
2023-03-21T17:15:29.926Z,15.50
2023-03-21T17:21:04.148Z,15.40
2023-03-21T17:23:33.419Z,15.40
2023-03-21T17:26:02.296Z,15.40
2023-03-21T17:28:30.679Z,15.40
2023-03-21T17:30:59.220Z,15.40
2023-03-21T17:33:28.941Z,15.40
2023-03-21T17:35:57.607Z,15.40
2023-03-21T17:38:25.930Z,15.30
2023-03-21T17:40:54.292Z,15.30
2023-03-21T17:43:23.370Z,15.30
2023-03-21T17:45:52.372Z,15.30
2023-03-21T17:48:21.899Z,15.20
2023-03-21T17:50:51.703Z,15.20
2023-03-21T17:53:20.036Z,15.20
2023-03-21T17:55:48.360Z,15.20
2023-03-21T17:58:17.783Z,15.20
2023-03-21T18:00:46.925Z,15.20
2023-03-21T18:03:17.213Z,15.10
2023-03-21T18:05:46.917Z,15.10
2023-03-21T18:08:16.698Z,15.10
2023-03-21T18:10:45.178Z,15.00
2023-03-21T18:13:14.106Z,15.00
2023-03-21T18:15:44.187Z,15.00
2023-03-21T18:18:13.286Z,15.00
2023-03-21T18:20:51.684Z,15.00
2023-03-21T18:23:22.836Z,14.90
2023-03-21T18:25:52.692Z,14.90
2023-03-21T18:28:22.432Z,14.90
2023-03-21T18:33:41.348Z,14.80
2023-03-21T18:36:13.598Z,14.80
2023-03-21T18:38:43.822Z,14.80
2023-03-21T18:41:12.561Z,14.80
2023-03-21T18:44:05.852Z,14.70
2023-03-21T18:46:31.684Z,14.70
2023-03-21T18:49:19.899Z,14.70
2023-03-21T18:51:48.513Z,14.60
2023-03-21T18:54:18.222Z,14.60
2023-03-21T18:57:33.852Z,14.60
2023-03-21T18:59:40.307Z,14.50
2023-03-21T19:02:09.288Z,14.50
2023-03-21T19:04:38.346Z,14.50
2023-03-21T19:07:08.110Z,14.50
2023-03-21T19:10:01.432Z,14.40
2023-03-21T19:12:27.613Z,14.40
2023-03-21T19:14:56.057Z,14.40
2023-03-21T19:18:15.723Z,14.40
2023-03-21T19:20:14.499Z,14.30
2023-03-21T19:22:42.916Z,14.30
2023-03-21T19:25:13.589Z,14.30
2023-03-21T19:27:42.363Z,14.20
2023-03-21T19:30:15.736Z,14.20
2023-03-21T19:32:47.617Z,14.20
2023-03-21T19:35:16.288Z,14.10
2023-03-21T19:37:45.231Z,14.10
2023-03-21T19:40:15.636Z,14.10
2023-03-21T19:42:46.235Z,14.00
2023-03-21T19:45:14.679Z,14.00
2023-03-21T19:47:44.475Z,14.00
2023-03-21T19:50:47.777Z,14.00
2023-03-21T19:53:01.434Z,14.00
2023-03-21T19:55:31.485Z,13.90
2023-03-21T19:58:00.081Z,13.90
2023-03-21T20:00:28.454Z,13.90
2023-03-21T20:02:56.866Z,13.90
2023-03-21T20:05:25.838Z,13.80
2023-03-21T20:07:55.350Z,13.80
2023-03-21T20:10:27.349Z,13.80
2023-03-21T20:12:57.806Z,13.80
2023-03-21T20:15:29.748Z,13.80
2023-03-21T20:17:58.961Z,13.70
2023-03-21T20:20:27.403Z,13.70
2023-03-21T20:23:06.797Z,13.70
2023-03-21T20:25:36.427Z,13.70
2023-03-21T20:28:15.906Z,13.70
2023-03-21T20:30:50.849Z,13.60
2023-03-21T20:33:19.296Z,13.60
2023-03-21T20:38:37.704Z,13.60
2023-03-21T20:41:07.633Z,13.60
2023-03-21T20:44:20.842Z,13.50
2023-03-21T20:46:25.676Z,13.50
2023-03-21T20:48:54.642Z,13.50
2023-03-21T20:54:11.580Z,13.50
2023-03-21T20:56:40.028Z,13.40
2023-03-21T20:59:20.895Z,13.40
2023-03-21T21:01:52.277Z,13.40
2023-03-21T21:04:22.405Z,13.40
2023-03-21T21:06:51.547Z,13.40
2023-03-21T21:09:19.998Z,13.40
2023-03-21T21:14:39.298Z,13.30
2023-03-21T21:17:50.974Z,13.30
2023-03-21T21:19:58.028Z,13.30
2023-03-21T21:22:28.263Z,13.30
2023-03-21T21:24:57.073Z,13.20
2023-03-21T21:27:26.063Z,13.30
2023-03-21T21:29:57.550Z,13.30
2023-03-21T21:32:27.278Z,13.30
2023-03-21T21:34:56.211Z,13.40
2023-03-21T21:37:25.047Z,13.30
2023-03-21T21:39:54.075Z,13.30
2023-03-21T21:42:22.522Z,13.30
2023-03-21T21:44:50.895Z,13.30
2023-03-21T21:47:20.694Z,13.30
2023-03-21T21:49:49.188Z,13.30
2023-03-21T21:52:24.112Z,13.30
2023-03-21T21:54:52.572Z,13.30
2023-03-21T21:57:21.079Z,13.20
2023-03-21T21:59:53.905Z,13.20
2023-03-21T22:02:25.473Z,13.20
2023-03-21T22:04:56.839Z,13.20
2023-03-21T22:07:28.593Z,13.20
2023-03-21T22:09:57.654Z,13.00
2023-03-21T22:12:26.460Z,13.10
2023-03-21T22:14:54.807Z,13.10
2023-03-21T22:17:24.558Z,13.00
2023-03-21T22:20:05.118Z,13.00
2023-03-21T22:22:34.022Z,13.00
2023-03-21T22:25:02.555Z,13.00
2023-03-21T22:27:31.148Z,12.90
2023-03-21T22:30:04.493Z,12.90
2023-03-21T22:32:34.695Z,12.90
2023-03-21T22:35:03.404Z,12.90
2023-03-21T22:37:33.286Z,13.00
2023-03-21T22:40:02.116Z,12.90
2023-03-21T22:42:30.468Z,12.80
2023-03-21T22:44:58.825Z,12.90
2023-03-21T22:47:27.227Z,12.80
2023-03-21T22:49:56.993Z,12.70
2023-03-21T22:52:26.280Z,12.70
2023-03-21T22:54:54.766Z,12.70
2023-03-21T22:57:23.281Z,12.70
2023-03-21T22:59:51.745Z,12.70
2023-03-21T23:02:20.161Z,12.80
2023-03-21T23:04:50.983Z,12.80
2023-03-21T23:07:20.835Z,12.70
2023-03-21T23:09:49.353Z,12.70
2023-03-21T23:12:17.884Z,12.70
2023-03-21T23:14:46.315Z,12.70
2023-03-21T23:17:16.368Z,12.70
2023-03-21T23:19:44.928Z,12.70
2023-03-21T23:22:13.238Z,12.70
2023-03-21T23:24:43.005Z,12.60
2023-03-21T23:27:11.314Z,12.60
2023-03-21T23:29:39.725Z,12.70
2023-03-21T23:32:08.126Z,12.60
2023-03-21T23:34:36.794Z,12.60
2023-03-21T23:37:06.828Z,12.80
2023-03-21T23:39:35.465Z,12.60
2023-03-21T23:42:06.455Z,12.60
2023-03-21T23:44:35.075Z,12.60
2023-03-21T23:47:06.300Z,12.60
2023-03-21T23:49:41.243Z,12.60
2023-03-21T23:52:09.603Z,12.60
2023-03-21T23:54:38.273Z,12.60
2023-03-21T23:57:08.119Z,12.60
2023-03-21T23:59:36.442Z,12.50
